createdAt,value
2022-09-22T00:01:45.453Z,2.87
2022-09-22T00:04:14.913Z,2.74
2022-09-22T00:06:47.661Z,2.68
2022-09-22T00:09:22.083Z,2.73
2022-09-22T00:11:54.584Z,2.90
2022-09-22T00:14:27.302Z,2.95
2022-09-22T00:17:01.543Z,2.99
2022-09-22T00:19:34.066Z,3.05
2022-09-22T00:22:03.774Z,3.13
2022-09-22T00:24:36.930Z,3.12
2022-09-22T00:27:06.663Z,3.00
2022-09-22T00:29:36.486Z,3.00
2022-09-22T00:32:08.030Z,3.08
2022-09-22T00:34:37.225Z,2.98
2022-09-22T00:37:06.659Z,2.92
2022-09-22T00:39:35.694Z,2.94
2022-09-22T00:42:06.037Z,2.89
2022-09-22T00:44:40.493Z,2.71
2022-09-22T00:47:33.541Z,2.66
2022-09-22T00:50:13.336Z,2.86
2022-09-22T00:52:47.399Z,3.00
2022-09-22T00:55:21.222Z,2.98
2022-09-22T00:57:52.941Z,2.95
2022-09-22T01:00:22.936Z,2.95
2022-09-22T01:02:58.244Z,2.70
2022-09-22T01:05:28.846Z,2.66
2022-09-22T01:08:00.384Z,2.69
2022-09-22T01:10:29.652Z,2.67
2022-09-22T01:13:14.397Z,2.60
2022-09-22T01:15:58.970Z,2.54
2022-09-22T01:18:50.503Z,2.50
2022-09-22T01:21:28.490Z,2.62
2022-09-22T01:24:50.379Z,2.89
2022-09-22T01:28:00.944Z,2.93
2022-09-22T01:30:38.908Z,2.98
2022-09-22T01:33:24.432Z,3.22
2022-09-22T01:36:10.707Z,3.16
2022-09-22T01:38:49.355Z,3.35
2022-09-22T01:41:26.009Z,3.34
2022-09-22T01:44:02.839Z,3.39
2022-09-22T01:46:39.189Z,3.68
2022-09-22T01:49:13.906Z,3.59
2022-09-22T01:51:46.207Z,3.52
2022-09-22T01:54:20.171Z,3.56
2022-09-22T01:56:57.172Z,3.65
2022-09-22T01:59:31.807Z,3.68
2022-09-22T02:02:06.215Z,3.77
2022-09-22T02:04:40.304Z,3.96
2022-09-22T02:07:16.985Z,4.01
2022-09-22T02:09:48.731Z,4.06
2022-09-22T02:12:19.098Z,4.17
2022-09-22T02:14:48.876Z,4.18
2022-09-22T02:17:19.821Z,4.29
2022-09-22T02:19:50.636Z,4.30
2022-09-22T02:22:19.789Z,4.43
2022-09-22T02:24:49.595Z,4.40
2022-09-22T02:27:26.579Z,4.29
2022-09-22T02:30:02.253Z,4.21
2022-09-22T02:32:35.852Z,4.17
2022-09-22T02:35:06.510Z,4.04
2022-09-22T02:37:43.007Z,3.97
2022-09-22T02:40:20.314Z,3.89
2022-09-22T02:42:53.085Z,3.67
2022-09-22T02:45:31.085Z,3.67
2022-09-22T02:48:07.252Z,3.55
2022-09-22T02:50:37.161Z,3.55
2022-09-22T02:53:13.833Z,3.39
2022-09-22T02:55:43.766Z,3.40
2022-09-22T02:58:14.866Z,3.42
2022-09-22T03:00:44.173Z,3.48
2022-09-22T03:03:14.907Z,3.49
2022-09-22T03:05:44.034Z,3.39
2022-09-22T03:08:13.173Z,3.31
2022-09-22T03:10:42.488Z,3.17
2022-09-22T03:13:18.927Z,3.14
2022-09-22T03:15:49.832Z,2.97
2022-09-22T03:18:28.846Z,2.96
2022-09-22T03:20:58.005Z,3.13
2022-09-22T03:23:27.174Z,3.16
2022-09-22T03:25:56.346Z,2.94
2022-09-22T03:28:25.564Z,2.95
2022-09-22T03:30:54.701Z,3.26
2022-09-22T03:33:26.011Z,3.18
2022-09-22T03:35:56.698Z,3.04
2022-09-22T03:38:25.901Z,2.88
2022-09-22T03:40:58.683Z,2.73
2022-09-22T03:43:28.006Z,2.60
2022-09-22T03:45:59.278Z,2.51
2022-09-22T03:48:30.140Z,2.47
2022-09-22T03:51:00.716Z,2.63
2022-09-22T03:53:30.237Z,2.91
2022-09-22T03:56:07.952Z,3.02
2022-09-22T03:58:38.388Z,3.12
2022-09-22T04:01:09.610Z,3.00
2022-09-22T04:03:39.848Z,2.79
2022-09-22T04:06:10.621Z,2.66
2022-09-22T04:08:40.175Z,2.57
2022-09-22T04:11:09.514Z,2.64
2022-09-22T04:13:42.689Z,2.65
2022-09-22T04:16:15.425Z,2.64
2022-09-22T04:18:45.026Z,2.77
2022-09-22T04:21:15.724Z,2.86
2022-09-22T04:23:45.040Z,2.85
2022-09-22T04:26:14.151Z,2.77
2022-09-22T04:28:43.372Z,2.83
2022-09-22T04:31:12.564Z,2.97
2022-09-22T04:33:41.847Z,2.89
2022-09-22T04:36:10.966Z,2.88
2022-09-22T04:38:41.463Z,2.98
2022-09-22T04:41:10.565Z,3.07
2022-09-22T04:43:40.043Z,3.14
2022-09-22T04:46:09.253Z,3.16
2022-09-22T04:48:38.367Z,3.19
2022-09-22T04:51:07.674Z,3.15
2022-09-22T04:53:36.842Z,3.17
2022-09-22T04:56:08.003Z,3.19
2022-09-22T04:58:37.114Z,3.26
2022-09-22T05:01:08.119Z,3.12
2022-09-22T05:03:39.168Z,2.95
2022-09-22T05:06:09.014Z,2.91
2022-09-22T05:08:38.153Z,2.85
2022-09-22T05:11:09.423Z,2.84
2022-09-22T05:13:41.191Z,2.96
2022-09-22T05:16:10.486Z,2.99
2022-09-22T05:18:39.903Z,2.99
2022-09-22T05:21:09.032Z,3.04
2022-09-22T05:23:39.499Z,3.14
2022-09-22T05:26:10.097Z,3.13
2022-09-22T05:28:39.320Z,3.49
2022-09-22T05:31:08.334Z,3.69
2022-09-22T05:33:37.465Z,3.62
2022-09-22T05:36:07.077Z,3.67
2022-09-22T05:38:36.201Z,3.74
2022-09-22T05:41:05.434Z,3.99
2022-09-22T05:43:36.034Z,4.07
2022-09-22T05:46:05.347Z,4.12
2022-09-22T05:48:34.609Z,4.21
2022-09-22T05:51:04.572Z,4.33
2022-09-22T05:53:33.782Z,4.39
2022-09-22T05:56:03.711Z,4.51
2022-09-22T05:58:35.147Z,4.63
2022-09-22T06:01:04.949Z,4.85
2022-09-22T06:03:34.158Z,4.96
2022-09-22T06:06:03.401Z,5.20
2022-09-22T06:08:32.553Z,5.54
2022-09-22T06:11:01.848Z,5.70
2022-09-22T06:13:31.241Z,5.75
2022-09-22T06:16:04.565Z,5.73
2022-09-22T06:18:33.693Z,5.58
2022-09-22T06:21:02.810Z,5.67
2022-09-22T06:23:32.062Z,5.68
2022-09-22T06:26:01.170Z,5.68
2022-09-22T06:28:30.335Z,5.83
2022-09-22T06:31:00.718Z,6.06
2022-09-22T06:33:32.080Z,6.30
2022-09-22T06:36:02.097Z,6.40
2022-09-22T06:38:32.372Z,6.58
2022-09-22T06:41:03.116Z,6.70
2022-09-22T06:43:33.040Z,6.92
2022-09-22T06:46:02.933Z,7.16
2022-09-22T06:48:33.584Z,7.29
2022-09-22T06:51:02.723Z,7.28
2022-09-22T06:53:31.799Z,7.27
2022-09-22T06:56:03.389Z,7.24
2022-09-22T06:58:47.028Z,7.38
2022-09-22T07:01:22.017Z,7.40
2022-09-22T07:03:52.838Z,7.44
2022-09-22T07:06:22.506Z,7.49
2022-09-22T07:08:51.560Z,7.55
2022-09-22T07:11:23.706Z,7.54
2022-09-22T07:13:55.106Z,7.49
2022-09-22T07:16:26.417Z,7.50
2022-09-22T07:18:59.540Z,7.71
2022-09-22T07:21:33.026Z,7.83
2022-09-22T07:24:02.289Z,7.79
2022-09-22T07:26:36.068Z,7.92
2022-09-22T07:29:11.727Z,7.98
2022-09-22T07:31:42.035Z,8.15
2022-09-22T07:34:13.647Z,8.26
2022-09-22T07:36:42.798Z,8.34
2022-09-22T07:39:12.183Z,8.42
2022-09-22T07:41:44.609Z,8.60
2022-09-22T07:44:33.429Z,8.86
2022-09-22T07:47:03.655Z,8.96
2022-09-22T07:49:34.338Z,9.18
2022-09-22T07:52:03.588Z,9.38
2022-09-22T07:54:34.770Z,9.43
2022-09-22T07:57:09.608Z,9.42
2022-09-22T07:59:39.761Z,9.47
2022-09-22T08:02:11.805Z,9.77
2022-09-22T08:04:42.450Z,10.15
2022-09-22T08:07:11.864Z,10.32
2022-09-22T08:09:40.959Z,10.52
2022-09-22T08:12:10.193Z,10.67
2022-09-22T08:14:39.345Z,10.85
2022-09-22T08:17:12.450Z,11.09
2022-09-22T08:19:43.240Z,11.44
2022-09-22T08:22:12.359Z,11.57
2022-09-22T08:24:45.813Z,11.98
2022-09-22T08:27:15.260Z,12.45
2022-09-22T08:29:44.822Z,12.93
2022-09-22T08:32:17.538Z,13.33
2022-09-22T08:34:48.163Z,13.81
2022-09-22T08:37:17.256Z,14.27
2022-09-22T08:39:46.413Z,14.63
2022-09-22T08:42:20.854Z,14.84
2022-09-22T08:45:00.873Z,15.13
2022-09-22T08:47:51.253Z,15.39
2022-09-22T08:50:56.020Z,15.71
2022-09-22T08:53:26.278Z,15.81
2022-09-22T08:56:07.110Z,16.02
2022-09-22T08:58:45.402Z,16.05
2022-09-22T09:01:40.928Z,16.18
2022-09-22T09:04:45.519Z,16.30
2022-09-22T09:07:25.861Z,16.17
2022-09-22T09:10:15.657Z,16.38
2022-09-22T09:13:11.595Z,16.36
2022-09-22T09:15:58.551Z,16.44
2022-09-22T09:18:34.026Z,16.50
2022-09-22T09:21:07.735Z,16.40
2022-09-22T09:26:36.647Z,16.42
2022-09-22T09:29:09.557Z,16.37
2022-09-22T09:31:46.243Z,16.39
2022-09-22T09:34:18.043Z,16.39
2022-09-22T09:36:52.653Z,16.28
2022-09-22T09:39:30.654Z,16.35
2022-09-22T09:42:02.026Z,16.37
2022-09-22T09:44:39.035Z,16.60
2022-09-22T09:47:19.589Z,16.71
2022-09-22T09:49:52.829Z,16.74
2022-09-22T09:52:24.092Z,16.77
2022-09-22T09:54:55.674Z,16.55
2022-09-22T09:57:28.335Z,16.58
2022-09-22T10:00:32.527Z,16.45
2022-09-22T10:03:17.296Z,16.77
2022-09-22T10:06:00.310Z,16.93
2022-09-22T10:08:35.227Z,16.89
2022-09-22T10:11:06.094Z,16.55
2022-09-22T10:13:37.565Z,16.56
2022-09-22T10:16:33.602Z,16.58
2022-09-22T10:19:22.562Z,16.71
2022-09-22T10:21:52.017Z,16.73
2022-09-22T10:24:31.869Z,16.78
2022-09-22T10:27:05.329Z,16.98
2022-09-22T10:29:39.579Z,17.01
2022-09-22T10:32:19.058Z,17.01
2022-09-22T10:34:57.325Z,17.19
2022-09-22T10:37:30.154Z,17.29
2022-09-22T10:40:02.876Z,17.09
2022-09-22T10:42:43.257Z,16.84
2022-09-22T10:45:16.380Z,16.73
2022-09-22T10:48:00.753Z,17.07
2022-09-22T10:50:51.920Z,17.72
2022-09-22T10:53:48.948Z,18.53
2022-09-22T10:56:30.226Z,18.88
2022-09-22T10:59:39.661Z,18.64
2022-09-22T11:02:54.833Z,18.26
2022-09-22T11:05:56.576Z,18.24
2022-09-22T11:08:43.671Z,18.32
2022-09-22T11:11:39.474Z,17.74
2022-09-22T11:14:29.656Z,17.41
2022-09-22T11:17:16.046Z,17.33
2022-09-22T11:20:19.411Z,18.39
2022-09-22T11:23:05.274Z,18.82
2022-09-22T11:26:04.807Z,18.87
2022-09-22T11:29:01.937Z,19.01
2022-09-22T11:31:48.278Z,19.34
2022-09-22T11:34:51.790Z,19.61
2022-09-22T11:37:38.583Z,19.47
2022-09-22T11:40:42.368Z,19.65
2022-09-22T11:43:36.322Z,20.50
2022-09-22T11:46:17.884Z,20.59
2022-09-22T11:49:10.700Z,20.14
2022-09-22T11:52:00.306Z,20.07
2022-09-22T11:55:00.470Z,20.18
2022-09-22T11:57:53.616Z,20.26
2022-09-22T12:00:35.337Z,20.38
2022-09-22T12:03:24.275Z,19.77
2022-09-22T12:06:06.092Z,19.03
2022-09-22T12:08:40.133Z,19.28
2022-09-22T12:11:16.153Z,19.93
2022-09-22T12:13:50.574Z,19.09
2022-09-22T12:16:25.225Z,19.48
2022-09-22T12:19:00.257Z,20.19
2022-09-22T12:21:50.024Z,20.14
2022-09-22T12:24:19.196Z,18.49
2022-09-22T12:26:52.054Z,18.23
2022-09-22T12:29:29.778Z,18.55
2022-09-22T12:32:08.526Z,18.56
2022-09-22T12:34:50.254Z,18.81
2022-09-22T12:37:33.437Z,18.61
2022-09-22T12:40:29.132Z,18.32
2022-09-22T12:43:02.144Z,18.52
2022-09-22T12:45:40.619Z,18.51
2022-09-22T12:48:23.029Z,17.76
2022-09-22T12:50:53.462Z,18.26
2022-09-22T12:53:29.841Z,18.60
2022-09-22T12:56:47.025Z,18.75
2022-09-22T12:59:59.813Z,18.72
2022-09-22T13:02:31.873Z,18.34
2022-09-22T13:05:46.385Z,17.89
2022-09-22T13:08:28.270Z,17.93
2022-09-22T13:11:07.846Z,17.61
2022-09-22T13:13:41.712Z,17.20
2022-09-22T13:16:38.116Z,16.91
2022-09-22T13:19:14.872Z,17.33
2022-09-22T13:21:47.671Z,18.10
2022-09-22T13:24:27.531Z,18.21
2022-09-22T13:27:14.985Z,17.94
2022-09-22T13:30:06.722Z,17.70
2022-09-22T13:32:36.703Z,17.57
2022-09-22T13:35:24.476Z,17.52
2022-09-22T13:38:01.583Z,17.53
2022-09-22T13:40:34.857Z,17.79
2022-09-22T13:43:14.790Z,17.66
2022-09-22T13:45:52.036Z,17.27
2022-09-22T13:48:22.567Z,17.81
2022-09-22T13:50:56.387Z,18.85
2022-09-22T13:53:36.642Z,19.89
2022-09-22T13:56:20.779Z,21.26
2022-09-22T13:58:57.165Z,22.41
2022-09-22T14:01:31.155Z,23.28
2022-09-22T14:04:29.591Z,24.45
2022-09-22T14:07:14.421Z,23.37
2022-09-22T14:09:49.047Z,22.14
2022-09-22T14:12:19.138Z,20.65
2022-09-22T14:14:49.705Z,19.79
2022-09-22T14:17:23.453Z,19.18
2022-09-22T14:19:58.973Z,18.74
2022-09-22T14:22:30.622Z,18.29
2022-09-22T14:25:02.495Z,17.93
2022-09-22T14:27:36.792Z,17.77
2022-09-22T14:30:17.841Z,17.59
2022-09-22T14:32:51.990Z,17.49
2022-09-22T14:35:28.318Z,17.43
2022-09-22T14:38:06.357Z,17.16
2022-09-22T14:40:52.988Z,16.44
2022-09-22T14:43:27.590Z,15.90
2022-09-22T14:46:24.514Z,15.59
2022-09-22T14:48:55.451Z,15.59
2022-09-22T14:51:27.295Z,15.48
2022-09-22T14:54:05.768Z,15.71
2022-09-22T14:56:36.877Z,15.84
2022-09-22T14:59:23.583Z,17.95
2022-09-22T15:02:12.348Z,22.08
2022-09-22T15:04:47.195Z,27.35
2022-09-22T15:07:26.111Z,30.83
2022-09-22T15:10:01.181Z,33.29
2022-09-22T15:12:40.900Z,32.91
2022-09-22T15:15:21.862Z,32.22
2022-09-22T15:18:11.569Z,34.15
2022-09-22T15:20:44.778Z,35.14
2022-09-22T15:23:23.122Z,36.10
2022-09-22T15:25:56.898Z,36.71
2022-09-22T15:28:28.968Z,36.65
2022-09-22T15:30:59.083Z,36.76
2022-09-22T15:33:29.950Z,35.85
2022-09-22T15:36:04.977Z,32.86
2022-09-22T15:38:38.478Z,28.36
2022-09-22T15:41:12.312Z,25.58
2022-09-22T15:43:47.462Z,23.37
2022-09-22T15:46:31.651Z,21.73
2022-09-22T15:49:13.326Z,20.87
2022-09-22T15:51:42.854Z,20.41
2022-09-22T15:54:18.236Z,20.50
2022-09-22T15:56:50.500Z,19.92
2022-09-22T15:59:23.730Z,19.30
2022-09-22T16:01:55.236Z,18.40
2022-09-22T16:04:34.326Z,18.01
2022-09-22T16:07:09.579Z,17.76
2022-09-22T16:09:38.934Z,17.39
2022-09-22T16:12:11.074Z,16.99
2022-09-22T16:14:42.597Z,16.56
2022-09-22T16:17:11.790Z,16.13
2022-09-22T16:19:42.412Z,15.79
2022-09-22T16:22:11.581Z,15.53
2022-09-22T16:24:40.811Z,15.28
2022-09-22T16:27:10.401Z,15.13
2022-09-22T16:29:39.591Z,15.25
2022-09-22T16:32:08.657Z,15.13
2022-09-22T16:34:43.013Z,14.51
2022-09-22T16:37:13.554Z,14.20
2022-09-22T16:39:42.921Z,13.90
2022-09-22T16:42:23.509Z,13.61
2022-09-22T16:44:54.108Z,13.33
2022-09-22T16:47:23.215Z,12.97
2022-09-22T16:49:54.403Z,12.70
2022-09-22T16:52:30.500Z,12.47
2022-09-22T16:55:00.881Z,12.20
2022-09-22T16:57:30.583Z,12.04
2022-09-22T16:59:59.763Z,11.88
2022-09-22T17:02:28.902Z,11.69
2022-09-22T17:04:59.170Z,11.48
2022-09-22T17:07:31.774Z,11.22
2022-09-22T17:10:01.678Z,11.12
2022-09-22T17:12:31.441Z,10.80
2022-09-22T17:15:03.663Z,10.67
2022-09-22T17:17:35.974Z,10.52
2022-09-22T17:20:06.169Z,10.48
2022-09-22T17:22:37.386Z,10.28
2022-09-22T17:25:12.793Z,9.93
2022-09-22T17:27:42.135Z,9.91
2022-09-22T17:30:12.641Z,9.89
2022-09-22T17:32:41.920Z,9.77
2022-09-22T17:35:11.857Z,9.72
2022-09-22T17:37:42.324Z,9.70
2022-09-22T17:40:12.601Z,9.76
2022-09-22T17:42:42.447Z,9.60
2022-09-22T17:45:14.067Z,9.46
2022-09-22T17:48:01.024Z,9.38
2022-09-22T17:50:47.880Z,9.27
2022-09-22T17:53:35.915Z,9.06
2022-09-22T17:56:05.695Z,8.94
2022-09-22T17:58:34.752Z,8.87
2022-09-22T18:01:03.811Z,8.80
2022-09-22T18:03:32.950Z,8.69
2022-09-22T18:06:04.025Z,8.47
2022-09-22T18:08:35.149Z,8.44
2022-09-22T18:11:04.662Z,8.56
2022-09-22T18:13:39.117Z,8.66
2022-09-22T18:16:21.317Z,8.55
2022-09-22T18:18:50.960Z,8.49
2022-09-22T18:21:20.100Z,8.48
2022-09-22T18:23:50.669Z,8.54
2022-09-22T18:26:20.036Z,8.51
2022-09-22T18:28:54.155Z,8.26
2022-09-22T18:31:23.392Z,8.12
2022-09-22T18:33:54.025Z,7.88
2022-09-22T18:36:27.992Z,7.81
2022-09-22T18:39:04.934Z,7.83
2022-09-22T18:41:41.764Z,7.84
2022-09-22T18:44:14.165Z,7.88
2022-09-22T18:46:48.642Z,7.86
2022-09-22T18:49:20.328Z,7.79
2022-09-22T18:51:50.763Z,7.86
2022-09-22T18:54:23.441Z,7.71
2022-09-22T18:56:54.810Z,7.71
2022-09-22T18:59:26.412Z,7.64
2022-09-22T19:01:56.030Z,7.56
2022-09-22T19:04:27.355Z,7.51
2022-09-22T19:07:15.911Z,7.45
2022-09-22T19:09:47.098Z,7.21
2022-09-22T19:12:17.068Z,7.26
2022-09-22T19:14:46.471Z,7.26
2022-09-22T19:17:17.294Z,7.02
2022-09-22T19:19:50.025Z,7.22
2022-09-22T19:22:19.201Z,7.38
2022-09-22T19:24:50.997Z,7.33
2022-09-22T19:27:22.888Z,7.37
2022-09-22T19:29:52.680Z,7.32
2022-09-22T19:32:21.814Z,7.22
2022-09-22T19:34:53.765Z,7.19
2022-09-22T19:37:24.818Z,6.96
2022-09-22T19:39:55.419Z,7.05
2022-09-22T19:42:24.746Z,6.95
2022-09-22T19:44:53.788Z,6.97
2022-09-22T19:47:24.006Z,6.99
2022-09-22T19:49:53.638Z,7.07
2022-09-22T19:52:22.901Z,6.74
2022-09-22T19:54:52.802Z,6.55
2022-09-22T19:57:23.556Z,6.44
2022-09-22T19:59:52.765Z,6.36
2022-09-22T20:02:21.934Z,6.34
2022-09-22T20:04:52.421Z,6.36
2022-09-22T20:07:23.085Z,6.46
2022-09-22T20:09:52.964Z,6.49
2022-09-22T20:12:25.360Z,6.36
2022-09-22T20:14:54.724Z,6.36
2022-09-22T20:17:24.430Z,6.41
2022-09-22T20:19:55.461Z,6.35
2022-09-22T20:22:28.008Z,6.49
2022-09-22T20:25:01.981Z,6.59
2022-09-22T20:27:35.314Z,6.40
2022-09-22T20:30:06.908Z,6.17
2022-09-22T20:32:37.096Z,6.03
2022-09-22T20:35:08.065Z,6.15
2022-09-22T20:37:39.472Z,6.08
2022-09-22T20:40:15.458Z,6.01
2022-09-22T20:42:46.368Z,5.90
2022-09-22T20:45:18.365Z,5.93
2022-09-22T20:47:47.721Z,5.88
2022-09-22T20:50:16.997Z,5.81
2022-09-22T20:52:49.133Z,5.92
2022-09-22T20:55:18.475Z,6.20
2022-09-22T20:57:49.217Z,6.04
2022-09-22T21:00:18.800Z,5.99
2022-09-22T21:02:48.164Z,5.89
2022-09-22T21:05:17.669Z,5.86
2022-09-22T21:07:47.826Z,5.74
2022-09-22T21:10:34.403Z,5.89
2022-09-22T21:13:05.382Z,6.01
2022-09-22T21:15:34.475Z,6.12
2022-09-22T21:18:03.566Z,5.97
2022-09-22T21:20:32.746Z,5.96
2022-09-22T21:23:02.692Z,6.04
2022-09-22T21:25:31.815Z,5.95
2022-09-22T21:28:00.930Z,5.79
2022-09-22T21:30:31.314Z,5.89
2022-09-22T21:33:00.451Z,5.71
2022-09-22T21:35:29.538Z,5.66
2022-09-22T21:37:58.609Z,5.60
2022-09-22T21:40:27.758Z,5.66
2022-09-22T21:42:56.806Z,5.77
2022-09-22T21:45:25.867Z,5.87
2022-09-22T21:47:56.355Z,5.70
2022-09-22T21:50:25.658Z,5.48
2022-09-22T21:52:54.734Z,5.37
2022-09-22T21:55:23.853Z,5.39
2022-09-22T21:57:54.084Z,5.47
2022-09-22T22:00:48.126Z,5.43
2022-09-22T22:03:27.602Z,5.50
2022-09-22T22:06:05.406Z,5.39
2022-09-22T22:08:37.341Z,5.56
2022-09-22T22:11:09.289Z,5.38
2022-09-22T22:13:40.962Z,5.27
2022-09-22T22:16:14.341Z,5.22
2022-09-22T22:18:44.798Z,5.07
2022-09-22T22:21:16.630Z,5.10
2022-09-22T22:23:48.523Z,5.09
2022-09-22T22:26:20.783Z,5.18
2022-09-22T22:28:51.711Z,5.09
2022-09-22T22:31:23.143Z,4.99
2022-09-22T22:33:53.795Z,4.91
2022-09-22T22:36:24.155Z,4.78
2022-09-22T22:38:53.845Z,4.66
2022-09-22T22:41:22.914Z,4.70
2022-09-22T22:43:51.924Z,4.78
2022-09-22T22:46:21.463Z,4.75
2022-09-22T22:48:51.024Z,4.83
2022-09-22T22:51:22.629Z,4.75
2022-09-22T22:53:52.688Z,4.67
2022-09-22T22:56:23.750Z,4.53
2022-09-22T22:58:54.147Z,4.60
2022-09-22T23:01:25.149Z,4.71
2022-09-22T23:03:57.524Z,4.68
2022-09-22T23:06:30.723Z,4.46
2022-09-22T23:09:00.083Z,4.52
2022-09-22T23:11:31.791Z,4.44
2022-09-22T23:14:03.261Z,4.43
2022-09-22T23:16:35.360Z,4.54
2022-09-22T23:19:07.961Z,4.57
2022-09-22T23:21:38.794Z,4.50
2022-09-22T23:24:08.427Z,4.50
2022-09-22T23:26:38.219Z,4.47
2022-09-22T23:29:07.431Z,4.53
2022-09-22T23:31:36.553Z,4.68
2022-09-22T23:34:06.122Z,4.60
2022-09-22T23:36:35.194Z,4.52
2022-09-22T23:39:05.955Z,4.70
2022-09-22T23:41:37.457Z,4.68
2022-09-22T23:44:07.486Z,4.55
2022-09-22T23:46:37.550Z,4.44
2022-09-22T23:49:07.564Z,4.30
2022-09-22T23:51:37.056Z,4.21
2022-09-22T23:54:08.831Z,4.26
2022-09-22T23:56:38.217Z,4.44
2022-09-22T23:59:07.486Z,4.54
